This is the latest recevied weather packets stored in our database for station/object KI4HRG. If no packets are shown the sender has not sent any weather packets the latest 10 day(s).
| Time | Temp. | Humidity | Pressure | Rain* | Wind** | Luminosity | Snow |
|---|---|---|---|---|---|---|---|
| 1788045731 | 26.67° C | 91% | 1017.3 hPa | 0 mm | - | 26 W/m² | - |
| 1788045431 | 27.22° C | 89% | 1017.3 hPa | 0 mm | - | 28 W/m² | - |
| 1788045128 | 27.22° C | 88% | 1017.4 hPa | 0 mm | - | 29 W/m² | - |
| 1788044827 | 27.78° C | 83% | 1017.1 hPa | 0 mm | - | 35 W/m² | - |
| 1788044522 | 28.33° C | 81% | 1017 hPa | 0 mm | - | 29 W/m² | - |
| 1788044216 | 30° C | 73% | 1017.1 hPa | 0 mm | - | 39 W/m² | - |
| 1788043911 | 30.56° C | 73% | 1017.1 hPa | 0 mm | - | 46 W/m² | - |
| 1788043607 | 31.67° C | 68% | 1017.1 hPa | 0 mm | - | 55 W/m² | - |
| 1788043307 | 32.22° C | 65% | 1016.9 hPa | 0 mm | - | 96 W/m² | - |
| 1788043002 | 32.22° C | 64% | 1016.8 hPa | 0 mm | - | 93 W/m² | - |
| 1788042697 | 32.22° C | 63% | 1016.9 hPa | 0 mm | - | 109 W/m² | - |
| 1788042396 | 32.22° C | 62% | 1016.7 hPa | 0 mm | - | 108 W/m² | - |
| 1788042091 | 32.22° C | 62% | 1017.1 hPa | 0 mm | - | 115 W/m² | - |
| 1788041786 | 32.22° C | 62% | 1016.9 hPa | 0 mm | - | 110 W/m² | - |
| 1788041481 | 32.22° C | 61% | 1016.9 hPa | 0 mm | - | 100 W/m² | - |
| 1788041176 | 32.22° C | 62% | 1016.8 hPa | 0 mm | - | 113 W/m² | - |
| 1788040875 | 32.22° C | 62% | 1016.7 hPa | 0 mm | - | 99 W/m² | - |
| 1788040574 | 32.22° C | 61% | 1016.7 hPa | 0 mm | - | 92 W/m² | - |
| 1788040270 | 32.22° C | 62% | 1016.8 hPa | 0 mm | - | 93 W/m² | - |
| 1788039969 | 32.22° C | 62% | 1016.8 hPa | 0 mm | - | 107 W/m² | - |
| 1788039664 | 31.67° C | 64% | 1017 hPa | 0 mm | - | 92 W/m² | - |
| 1788039359 | 32.22° C | 64% | 1017 hPa | 0 mm | - | 69 W/m² | - |
| 1788039055 | 32.78° C | 63% | 1017 hPa | 0 mm | - | 93 W/m² | - |
| 1788038750 | 32.78° C | 61% | 1016.8 hPa | 0 mm | - | 361 W/m² | - |
| 1788038444 | 33.33° C | 60% | 1016.9 hPa | 0 mm | - | 228 W/m² | - |
* Rain latest hour (hover to see other rain measurements)
** Current wind speed in m/s (hover to see current wind gust speed)